createdAt,value
2023-05-21T00:01:17.472Z,101662.91
2023-05-21T00:03:46.437Z,101665.63
2023-05-21T00:06:16.274Z,101662.03
2023-05-21T00:08:43.280Z,101661.03
2023-05-21T00:11:10.105Z,101661.16
2023-05-21T00:13:36.901Z,101657.72
2023-05-21T00:16:03.750Z,101653.06
2023-05-21T00:18:32.573Z,101650.00
2023-05-21T00:20:59.816Z,101656.59
2023-05-21T00:23:27.049Z,101646.88
2023-05-21T00:25:53.879Z,101648.75
2023-05-21T00:28:20.727Z,101654.53
2023-05-21T00:30:47.559Z,101647.78
2023-05-21T00:33:14.925Z,101644.09
2023-05-21T00:35:41.890Z,101645.97
2023-05-21T00:38:08.815Z,101644.09
2023-05-21T00:40:36.543Z,101645.31
2023-05-21T00:43:03.632Z,101647.25
2023-05-21T00:45:30.657Z,101634.09
2023-05-21T00:47:57.663Z,101646.72
2023-05-21T00:50:24.692Z,101644.38
2023-05-21T00:52:51.984Z,101636.38
2023-05-21T00:55:18.798Z,101636.47
2023-05-21T00:57:46.283Z,101643.75
2023-05-21T01:00:14.839Z,101637.69
2023-05-21T01:02:42.406Z,101637.94
2023-05-21T01:05:10.336Z,101635.63
2023-05-21T01:07:39.311Z,101633.81
2023-05-21T01:10:08.006Z,101627.72
2023-05-21T01:12:35.572Z,101626.09
2023-05-21T01:15:06.118Z,101622.47
2023-05-21T01:17:34.514Z,101625.16
2023-05-21T01:20:01.866Z,101613.03
2023-05-21T01:22:32.717Z,101614.84
2023-05-21T01:25:02.999Z,101614.16
2023-05-21T01:27:29.951Z,101615.22
2023-05-21T01:29:56.895Z,101617.06
2023-05-21T01:32:41.484Z,101620.00
2023-05-21T01:35:09.474Z,101614.75
2023-05-21T01:37:50.795Z,101615.00
2023-05-21T01:40:28.660Z,101612.44
2023-05-21T01:42:56.281Z,101611.75
2023-05-21T01:45:24.290Z,101621.75
2023-05-21T01:47:52.452Z,101614.63
2023-05-21T01:50:19.315Z,101608.44
2023-05-21T01:52:51.616Z,101604.25
2023-05-21T01:55:18.791Z,101608.00
2023-05-21T01:57:45.770Z,101604.38
2023-05-21T02:00:13.103Z,101600.94
2023-05-21T02:02:42.818Z,101601.88
2023-05-21T02:05:10.190Z,101605.56
2023-05-21T02:07:37.714Z,101603.88
2023-05-21T02:10:04.600Z,101599.44
2023-05-21T02:12:31.370Z,101600.19
2023-05-21T02:14:58.127Z,101602.16
2023-05-21T02:17:25.180Z,101591.78
2023-05-21T02:19:52.378Z,101589.97
2023-05-21T02:22:19.148Z,101590.63
2023-05-21T02:24:45.995Z,101588.03
2023-05-21T02:27:13.857Z,101588.97
2023-05-21T02:29:40.668Z,101585.41
2023-05-21T02:32:07.849Z,101583.72
2023-05-21T02:34:35.248Z,101581.16
2023-05-21T02:37:02.249Z,101588.19
2023-05-21T02:39:29.102Z,101588.28
2023-05-21T02:41:56.402Z,101582.91
2023-05-21T02:44:24.287Z,101580.28
2023-05-21T02:46:51.161Z,101582.16
2023-05-21T02:49:18.592Z,101586.06
2023-05-21T02:51:50.245Z,101581.50
2023-05-21T02:54:17.024Z,101573.38
2023-05-21T02:56:47.367Z,101569.13
2023-05-21T02:59:14.191Z,101573.00
2023-05-21T03:01:45.420Z,101573.63
2023-05-21T03:04:12.284Z,101570.13
2023-05-21T03:06:39.086Z,101565.72
2023-05-21T03:09:06.208Z,101567.88
2023-05-21T03:11:33.001Z,101563.38
2023-05-21T03:13:59.781Z,101566.94
2023-05-21T03:16:26.725Z,101562.53
2023-05-21T03:18:53.660Z,101562.66
2023-05-21T03:21:22.874Z,101567.75
2023-05-21T03:23:49.843Z,101568.31
2023-05-21T03:26:16.806Z,101570.38
2023-05-21T03:28:43.789Z,101573.69
2023-05-21T03:31:10.670Z,101575.56
2023-05-21T03:34:02.987Z,101579.97
2023-05-21T03:36:31.673Z,101585.44
2023-05-21T03:38:58.560Z,101577.38
2023-05-21T03:41:26.357Z,101570.56
2023-05-21T03:44:02.650Z,101578.19
2023-05-21T03:46:36.818Z,101571.50
2023-05-21T03:49:10.058Z,101573.53
2023-05-21T03:51:41.304Z,101566.81
2023-05-21T03:54:11.614Z,101576.06
2023-05-21T03:56:39.252Z,101574.78
2023-05-21T03:59:06.064Z,101575.72
2023-05-21T04:01:33.552Z,101581.69
2023-05-21T04:04:01.408Z,101587.00
2023-05-21T04:06:28.786Z,101581.78
2023-05-21T04:08:55.668Z,101573.22
2023-05-21T04:11:22.744Z,101580.03
2023-05-21T04:13:49.521Z,101586.97
2023-05-21T04:16:19.571Z,101574.66
2023-05-21T04:18:47.150Z,101572.78
2023-05-21T04:21:15.642Z,101577.84
2023-05-21T04:23:42.444Z,101578.56
2023-05-21T04:26:35.682Z,101585.00
2023-05-21T04:29:04.006Z,101585.56
2023-05-21T04:31:32.550Z,101584.56
2023-05-21T04:34:02.960Z,101586.63
2023-05-21T04:36:30.381Z,101583.34
2023-05-21T04:38:57.302Z,101591.63
2023-05-21T04:41:27.337Z,101587.81
2023-05-21T04:43:55.537Z,101590.22
2023-05-21T04:46:25.919Z,101588.63
2023-05-21T04:48:55.431Z,101596.63
2023-05-21T04:51:24.915Z,101593.53
2023-05-21T04:53:52.215Z,101593.19
2023-05-21T04:56:19.080Z,101592.22
2023-05-21T04:58:48.173Z,101594.44
2023-05-21T05:01:16.057Z,101588.84
2023-05-21T05:03:42.996Z,101591.72
2023-05-21T05:06:09.840Z,101589.13
2023-05-21T05:08:36.690Z,101584.16
2023-05-21T05:11:04.363Z,101583.47
2023-05-21T05:13:31.545Z,101588.28
2023-05-21T05:15:58.450Z,101593.44
2023-05-21T05:18:26.694Z,101590.19
2023-05-21T05:20:54.730Z,101595.69
2023-05-21T05:23:21.655Z,101597.69
2023-05-21T05:25:54.715Z,101588.25
2023-05-21T05:28:22.009Z,101598.31
2023-05-21T05:30:48.918Z,101590.56
2023-05-21T05:33:24.606Z,101594.44
2023-05-21T05:35:51.518Z,101589.94
2023-05-21T05:38:18.294Z,101592.25
2023-05-21T05:40:48.213Z,101591.66
2023-05-21T05:43:15.036Z,101593.25
2023-05-21T05:45:41.812Z,101594.06
2023-05-21T05:48:13.491Z,101584.84
2023-05-21T05:50:40.329Z,101591.81
2023-05-21T05:53:07.556Z,101592.63
2023-05-21T05:55:34.931Z,101597.94
2023-05-21T05:58:01.949Z,101595.97
2023-05-21T06:00:28.881Z,101578.69
2023-05-21T06:03:00.531Z,101584.66
2023-05-21T06:05:27.554Z,101595.44
2023-05-21T06:07:54.334Z,101584.25
2023-05-21T06:10:21.288Z,101576.84
2023-05-21T06:12:48.090Z,101582.78
2023-05-21T06:15:16.724Z,101583.56
2023-05-21T06:17:43.806Z,101577.84
2023-05-21T06:20:16.654Z,101582.47
2023-05-21T06:22:44.137Z,101579.84
2023-05-21T06:25:11.182Z,101580.34
2023-05-21T06:27:38.945Z,101571.81
2023-05-21T06:30:14.161Z,101585.97
2023-05-21T06:32:41.123Z,101576.94
2023-05-21T06:35:08.341Z,101571.22
2023-05-21T06:37:35.370Z,101576.88
2023-05-21T06:40:02.842Z,101576.38
2023-05-21T06:42:31.178Z,101573.47
2023-05-21T06:45:16.615Z,101571.06
2023-05-21T06:47:45.486Z,101568.66
2023-05-21T06:50:12.347Z,101572.94
2023-05-21T06:52:39.179Z,101576.13
2023-05-21T06:55:07.275Z,101568.31
2023-05-21T06:57:54.064Z,101565.41
2023-05-21T07:00:20.992Z,101570.63
2023-05-21T07:02:48.781Z,101565.81
2023-05-21T07:05:16.001Z,101567.94
2023-05-21T07:07:43.094Z,101563.91
2023-05-21T07:10:10.229Z,101564.34
2023-05-21T07:12:38.089Z,101564.66
2023-05-21T07:15:05.118Z,101568.94
2023-05-21T07:17:31.980Z,101567.50
2023-05-21T07:19:58.783Z,101559.78
2023-05-21T07:22:27.923Z,101554.75
2023-05-21T07:24:55.269Z,101561.94
2023-05-21T07:27:25.775Z,101550.13
2023-05-21T07:29:54.421Z,101555.59
2023-05-21T07:32:21.726Z,101558.28
2023-05-21T07:34:48.699Z,101552.06
2023-05-21T07:37:15.562Z,101555.22
2023-05-21T07:39:42.417Z,101548.72
2023-05-21T07:42:11.075Z,101550.66
2023-05-21T07:44:37.970Z,101561.47
2023-05-21T07:47:04.937Z,101556.59
2023-05-21T07:49:32.133Z,101555.03
2023-05-21T07:51:59.147Z,101556.47
2023-05-21T07:54:26.105Z,101551.38
2023-05-21T07:56:53.080Z,101550.97
2023-05-21T07:59:41.998Z,101541.94
2023-05-21T08:02:09.109Z,101539.03
2023-05-21T08:04:37.954Z,101529.81
2023-05-21T08:07:06.349Z,101533.28
2023-05-21T08:09:33.257Z,101531.75
2023-05-21T08:12:00.256Z,101540.44
2023-05-21T08:14:27.160Z,101534.66
2023-05-21T08:16:54.396Z,101535.88
2023-05-21T08:19:21.587Z,101533.38
2023-05-21T08:21:50.237Z,101525.06
2023-05-21T08:24:18.284Z,101529.00
2023-05-21T08:26:45.357Z,101522.44
2023-05-21T08:29:12.428Z,101528.84
2023-05-21T08:31:40.916Z,101524.47
2023-05-21T08:34:07.775Z,101531.69
2023-05-21T08:36:43.471Z,101528.94
2023-05-21T08:39:27.007Z,101529.41
2023-05-21T08:41:57.764Z,101528.25
2023-05-21T08:44:26.860Z,101516.34
2023-05-21T08:46:55.225Z,101525.81
2023-05-21T08:49:27.023Z,101529.44
2023-05-21T08:51:55.914Z,101528.41
2023-05-21T08:54:22.925Z,101529.16
2023-05-21T08:56:49.895Z,101533.50
2023-05-21T08:59:18.609Z,101530.66
2023-05-21T09:01:47.235Z,101520.03
2023-05-21T09:04:28.326Z,101526.84
2023-05-21T09:06:58.193Z,101525.50
2023-05-21T09:09:56.216Z,101526.22
2023-05-21T09:12:26.481Z,101526.91
2023-05-21T09:14:53.760Z,101519.81
2023-05-21T09:17:26.341Z,101518.34
2023-05-21T09:20:16.657Z,101509.22
2023-05-21T09:22:52.654Z,101514.94
2023-05-21T09:25:25.257Z,101519.16
2023-05-21T09:27:52.212Z,101509.28
2023-05-21T09:30:21.611Z,101511.53
2023-05-21T09:32:57.305Z,101505.84
2023-05-21T09:35:24.202Z,101504.03
2023-05-21T09:37:52.587Z,101511.19
2023-05-21T09:40:21.369Z,101500.94
2023-05-21T09:42:52.725Z,101491.59
2023-05-21T09:45:20.676Z,101501.56
2023-05-21T09:47:50.049Z,101492.22
2023-05-21T09:50:21.598Z,101490.97
2023-05-21T09:52:50.952Z,101500.94
2023-05-21T09:55:17.742Z,101493.81
2023-05-21T09:57:47.188Z,101492.50
2023-05-21T10:00:23.021Z,101494.84
2023-05-21T10:02:51.524Z,101490.69
2023-05-21T10:05:18.442Z,101489.75
2023-05-21T10:07:50.489Z,101484.75
2023-05-21T10:10:19.926Z,101469.38
2023-05-21T10:12:48.293Z,101472.75
2023-05-21T10:15:17.705Z,101467.09
2023-05-21T10:17:46.279Z,101469.03
2023-05-21T10:20:15.600Z,101475.59
2023-05-21T10:22:42.777Z,101453.88
2023-05-21T10:25:10.234Z,101459.88
2023-05-21T10:27:37.665Z,101455.09
2023-05-21T10:30:06.009Z,101450.97
2023-05-21T10:33:11.249Z,101445.66
2023-05-21T10:35:41.582Z,101443.13
2023-05-21T10:38:10.125Z,101448.66
2023-05-21T10:40:37.107Z,101445.53
2023-05-21T10:43:14.163Z,101456.38
2023-05-21T10:46:06.598Z,101439.38
2023-05-21T10:48:52.099Z,101436.59
2023-05-21T10:51:55.082Z,101437.13
2023-05-21T10:54:47.606Z,101442.66
2023-05-21T10:57:34.875Z,101446.97
2023-05-21T11:00:04.214Z,101440.56
2023-05-21T11:02:31.271Z,101431.75
2023-05-21T11:04:59.342Z,101439.00
2023-05-21T11:07:58.902Z,101428.75
2023-05-21T11:10:38.579Z,101424.69
2023-05-21T11:13:16.473Z,101424.75
2023-05-21T11:15:58.877Z,101421.94
2023-05-21T11:18:38.163Z,101420.50
2023-05-21T11:21:10.937Z,101429.47
2023-05-21T11:24:13.595Z,101416.38
2023-05-21T11:26:50.310Z,101423.81
2023-05-21T11:29:17.851Z,101419.22
2023-05-21T11:32:04.451Z,101415.44
2023-05-21T11:34:42.210Z,101413.91
2023-05-21T11:37:18.425Z,101414.47
2023-05-21T11:39:45.757Z,101409.59
2023-05-21T11:42:12.970Z,101411.47
2023-05-21T11:44:41.212Z,101413.56
2023-05-21T11:47:10.202Z,101399.00
2023-05-21T11:49:38.322Z,101407.75
2023-05-21T11:52:06.864Z,101397.63
2023-05-21T11:54:37.903Z,101401.53
2023-05-21T11:57:09.080Z,101407.97
2023-05-21T11:59:36.737Z,101405.88
2023-05-21T12:02:04.316Z,101416.75
2023-05-21T12:04:36.607Z,101410.88
2023-05-21T12:07:09.976Z,101403.34
2023-05-21T12:09:47.922Z,101407.66
2023-05-21T12:12:17.219Z,101404.69
2023-05-21T12:14:48.192Z,101407.66
2023-05-21T12:17:23.055Z,101400.19
2023-05-21T12:19:53.067Z,101398.13
2023-05-21T12:22:20.089Z,101396.59
2023-05-21T12:24:48.544Z,101397.66
2023-05-21T12:27:17.230Z,101401.47
2023-05-21T12:29:45.747Z,101396.53
2023-05-21T12:32:16.342Z,101398.31
2023-05-21T12:34:49.095Z,101390.97
2023-05-21T12:37:22.316Z,101389.41
2023-05-21T12:39:50.746Z,101393.84
2023-05-21T12:42:17.632Z,101395.88
2023-05-21T12:44:46.477Z,101393.13
2023-05-21T12:47:14.061Z,101389.28
2023-05-21T12:49:42.352Z,101388.97
2023-05-21T12:52:13.707Z,101391.59
2023-05-21T12:54:43.305Z,101392.31
2023-05-21T12:57:14.465Z,101390.88
2023-05-21T12:59:49.759Z,101389.72
2023-05-21T13:02:31.247Z,101388.44
2023-05-21T13:05:05.777Z,101388.16
2023-05-21T13:07:34.005Z,101388.72
2023-05-21T13:10:02.898Z,101380.63
2023-05-21T13:12:31.813Z,101377.47
2023-05-21T13:15:00.299Z,101376.13
2023-05-21T13:17:28.367Z,101374.69
2023-05-21T13:20:09.531Z,101378.00
2023-05-21T13:22:39.337Z,101378.25
2023-05-21T13:25:07.552Z,101372.97
2023-05-21T13:27:34.471Z,101376.13
2023-05-21T13:30:02.319Z,101361.78
2023-05-21T13:32:29.569Z,101367.13
2023-05-21T13:34:56.500Z,101382.31
2023-05-21T13:37:23.425Z,101371.84
2023-05-21T13:39:50.411Z,101372.47
2023-05-21T13:42:17.454Z,101358.66
2023-05-21T13:44:48.277Z,101353.44
2023-05-21T13:47:15.151Z,101364.97
2023-05-21T13:49:42.187Z,101364.19
2023-05-21T13:52:09.770Z,101356.13
2023-05-21T13:54:37.041Z,101361.53
2023-05-21T13:57:04.404Z,101351.63
2023-05-21T13:59:33.631Z,101353.06
2023-05-21T14:02:01.252Z,101364.28
2023-05-21T14:04:31.416Z,101342.09
2023-05-21T14:06:58.291Z,101347.97
2023-05-21T14:09:27.471Z,101347.97
2023-05-21T14:11:55.467Z,101349.72
2023-05-21T14:14:22.941Z,101352.44
2023-05-21T14:16:50.855Z,101338.31
2023-05-21T14:19:18.184Z,101344.25
2023-05-21T14:21:45.159Z,101346.28
2023-05-21T14:24:12.043Z,101343.53
2023-05-21T14:26:41.197Z,101356.16
2023-05-21T14:29:08.283Z,101355.38
2023-05-21T14:31:35.196Z,101350.47
2023-05-21T14:34:03.103Z,101347.59
2023-05-21T14:36:30.097Z,101350.44
2023-05-21T14:38:57.095Z,101350.19
2023-05-21T14:41:28.263Z,101357.97
2023-05-21T14:43:55.497Z,101350.22
2023-05-21T14:46:22.506Z,101356.16
2023-05-21T14:48:50.594Z,101352.84
2023-05-21T14:51:19.435Z,101356.16
2023-05-21T14:53:46.218Z,101358.56
2023-05-21T14:56:14.218Z,101360.16
2023-05-21T14:58:41.277Z,101350.53
2023-05-21T15:01:08.215Z,101349.63
2023-05-21T15:03:35.227Z,101350.53
2023-05-21T15:06:02.245Z,101352.09
2023-05-21T15:08:29.128Z,101340.00
2023-05-21T15:10:55.981Z,101349.34
2023-05-21T15:13:22.783Z,101346.31
2023-05-21T15:15:50.332Z,101345.75
2023-05-21T15:18:17.320Z,101330.59
2023-05-21T15:20:44.573Z,101344.03
2023-05-21T15:23:17.491Z,101344.19
2023-05-21T15:25:45.784Z,101341.44
2023-05-21T15:28:12.998Z,101329.38
2023-05-21T15:30:40.193Z,101339.16
2023-05-21T15:33:07.123Z,101343.47
2023-05-21T15:35:36.693Z,101336.13
2023-05-21T15:38:03.903Z,101328.78
2023-05-21T15:40:32.148Z,101329.19
2023-05-21T15:42:59.086Z,101338.56
2023-05-21T15:45:26.024Z,101326.78
2023-05-21T15:47:53.084Z,101334.56
2023-05-21T15:50:20.083Z,101331.25
2023-05-21T15:52:46.919Z,101335.28
2023-05-21T15:55:14.393Z,101335.13
2023-05-21T15:57:41.356Z,101338.44
2023-05-21T16:00:10.677Z,101336.41
2023-05-21T16:02:37.751Z,101332.38
2023-05-21T16:05:04.808Z,101340.59
2023-05-21T16:07:31.643Z,101330.50
2023-05-21T16:09:58.597Z,101328.50
2023-05-21T16:12:26.633Z,101329.34
2023-05-21T16:14:53.413Z,101327.44
2023-05-21T16:17:20.364Z,101332.06
2023-05-21T16:19:47.832Z,101315.22
2023-05-21T16:22:14.994Z,101318.97
2023-05-21T16:24:42.164Z,101319.53
2023-05-21T16:27:09.231Z,101315.66
2023-05-21T16:29:36.782Z,101322.97
2023-05-21T16:32:05.522Z,101309.03
2023-05-21T16:34:32.484Z,101311.31
2023-05-21T16:37:02.692Z,101313.78
2023-05-21T16:39:29.587Z,101314.47
2023-05-21T16:41:59.825Z,101312.59
2023-05-21T16:44:27.331Z,101308.13
2023-05-21T16:46:54.454Z,101322.34
2023-05-21T16:49:21.252Z,101310.84
2023-05-21T16:51:48.165Z,101314.09
2023-05-21T16:54:15.399Z,101322.56
2023-05-21T16:56:42.208Z,101317.81
2023-05-21T16:59:09.339Z,101323.91
2023-05-21T17:01:36.185Z,101314.94
2023-05-21T17:04:03.232Z,101316.47
2023-05-21T17:06:30.202Z,101328.56
2023-05-21T17:08:57.284Z,101326.72
2023-05-21T17:11:24.178Z,101324.44
2023-05-21T17:13:51.211Z,101327.16
2023-05-21T17:16:18.136Z,101327.13
2023-05-21T17:18:44.964Z,101325.06
2023-05-21T17:21:12.036Z,101321.44
2023-05-21T17:23:38.956Z,101316.78
2023-05-21T17:26:07.308Z,101321.41
2023-05-21T17:28:34.313Z,101323.69
2023-05-21T17:31:02.009Z,101319.47
2023-05-21T17:33:29.022Z,101320.63
2023-05-21T17:35:57.258Z,101322.34
2023-05-21T17:38:24.322Z,101319.63
2023-05-21T17:40:51.256Z,101316.34
2023-05-21T17:43:18.271Z,101322.00
2023-05-21T17:45:45.119Z,101321.59
2023-05-21T17:48:12.362Z,101329.78
2023-05-21T17:50:39.320Z,101319.66
2023-05-21T17:53:06.142Z,101330.06
2023-05-21T17:55:33.040Z,101323.00
2023-05-21T17:58:00.133Z,101324.28
2023-05-21T18:00:27.111Z,101326.72
2023-05-21T18:02:54.051Z,101326.31
2023-05-21T18:05:21.212Z,101340.97
2023-05-21T18:07:48.417Z,101341.38
2023-05-21T18:10:15.719Z,101336.44
2023-05-21T18:12:42.577Z,101342.41
2023-05-21T18:15:10.184Z,101345.84
2023-05-21T18:17:37.100Z,101343.81
2023-05-21T18:20:05.372Z,101349.38
2023-05-21T18:22:32.320Z,101347.53
2023-05-21T18:24:59.223Z,101347.53
2023-05-21T18:27:26.251Z,101352.03
2023-05-21T18:29:53.227Z,101353.88
2023-05-21T18:32:20.420Z,101351.66
2023-05-21T18:34:48.640Z,101351.16
2023-05-21T18:37:17.310Z,101346.09
2023-05-21T18:39:44.216Z,101353.44
2023-05-21T18:42:13.326Z,101351.22
2023-05-21T18:44:41.164Z,101354.19
2023-05-21T18:47:08.287Z,101355.31
2023-05-21T18:49:36.553Z,101360.03
2023-05-21T18:52:04.474Z,101366.09
2023-05-21T18:54:31.445Z,101364.13
2023-05-21T18:57:00.691Z,101356.69
2023-05-21T18:59:28.996Z,101360.91
2023-05-21T19:01:55.940Z,101365.75
2023-05-21T19:04:22.993Z,101371.56
2023-05-21T19:06:53.467Z,101372.53
2023-05-21T19:09:20.250Z,101367.63
2023-05-21T19:11:47.109Z,101371.44
2023-05-21T19:14:14.007Z,101368.81
2023-05-21T19:16:41.200Z,101377.50
2023-05-21T19:19:08.215Z,101382.19
2023-05-21T19:21:35.112Z,101379.94
2023-05-21T19:24:03.587Z,101388.97
2023-05-21T19:26:31.867Z,101386.53
2023-05-21T19:28:58.702Z,101400.88
2023-05-21T19:31:26.544Z,101390.47
2023-05-21T19:33:53.602Z,101404.09
2023-05-21T19:36:21.263Z,101406.28
2023-05-21T19:38:49.175Z,101405.53
2023-05-21T19:41:17.061Z,101407.34
2023-05-21T19:43:44.977Z,101408.13
2023-05-21T19:46:12.046Z,101413.94
2023-05-21T19:48:38.952Z,101403.28
2023-05-21T19:51:05.931Z,101409.13
2023-05-21T19:53:32.870Z,101406.97
2023-05-21T19:56:00.183Z,101405.88
2023-05-21T19:58:29.767Z,101409.47
2023-05-21T20:00:58.683Z,101406.88
2023-05-21T20:03:34.519Z,101411.44
2023-05-21T20:06:03.019Z,101409.34
2023-05-21T20:08:30.993Z,101401.16
2023-05-21T20:10:58.001Z,101410.81
2023-05-21T20:13:24.980Z,101406.94
2023-05-21T20:15:52.461Z,101405.19
2023-05-21T20:18:21.668Z,101402.91
2023-05-21T20:20:49.788Z,101399.22
2023-05-21T20:23:16.789Z,101411.38
2023-05-21T20:25:43.721Z,101408.75
2023-05-21T20:28:10.877Z,101412.22
2023-05-21T20:30:53.717Z,101412.66
2023-05-21T20:33:20.690Z,101409.06
2023-05-21T20:35:47.682Z,101408.16
2023-05-21T20:38:16.056Z,101409.13
2023-05-21T20:40:44.112Z,101411.19
2023-05-21T20:43:12.290Z,101406.00
2023-05-21T20:45:42.122Z,101406.69
2023-05-21T20:48:10.132Z,101408.66
2023-05-21T20:50:37.602Z,101405.31
2023-05-21T20:53:04.884Z,101410.25
2023-05-21T20:55:35.077Z,101403.59
2023-05-21T20:58:05.567Z,101412.13
2023-05-21T21:00:33.535Z,101408.38
2023-05-21T21:03:01.435Z,101422.06
2023-05-21T21:05:28.568Z,101415.38
2023-05-21T21:07:56.011Z,101422.63
2023-05-21T21:10:22.920Z,101417.75
2023-05-21T21:12:49.860Z,101417.44
2023-05-21T21:15:16.885Z,101422.25
2023-05-21T21:17:43.664Z,101417.38
2023-05-21T21:20:12.982Z,101425.41
2023-05-21T21:22:39.865Z,101426.81
2023-05-21T21:25:07.070Z,101425.50
2023-05-21T21:27:34.119Z,101430.75
2023-05-21T21:30:01.079Z,101426.25
2023-05-21T21:32:27.956Z,101419.72
2023-05-21T21:34:54.763Z,101430.50
2023-05-21T21:37:21.983Z,101426.59
2023-05-21T21:39:48.743Z,101432.47
2023-05-21T21:42:15.843Z,101430.28
2023-05-21T21:44:43.045Z,101432.88
2023-05-21T21:47:10.044Z,101433.13
2023-05-21T21:49:36.861Z,101430.41
2023-05-21T21:52:03.788Z,101432.28
2023-05-21T21:54:33.236Z,101434.75
2023-05-21T21:57:00.035Z,101429.56
2023-05-21T21:59:26.837Z,101425.22
2023-05-21T22:01:53.629Z,101425.78
2023-05-21T22:04:20.628Z,101425.88
2023-05-21T22:06:48.525Z,101431.41
2023-05-21T22:09:17.174Z,101428.69
2023-05-21T22:11:44.221Z,101421.75
2023-05-21T22:14:12.958Z,101428.28
2023-05-21T22:16:41.731Z,101431.09
2023-05-21T22:19:08.778Z,101420.56
2023-05-21T22:21:35.680Z,101425.34
2023-05-21T22:24:02.449Z,101432.31
2023-05-21T22:26:29.453Z,101426.31
2023-05-21T22:28:56.436Z,101422.50
2023-05-21T22:31:23.247Z,101434.38
2023-05-21T22:33:50.089Z,101429.91
2023-05-21T22:36:16.916Z,101436.44
2023-05-21T22:38:44.029Z,101427.63
2023-05-21T22:41:11.317Z,101427.09
2023-05-21T22:43:38.268Z,101432.50
2023-05-21T22:46:05.191Z,101426.56
2023-05-21T22:48:31.957Z,101431.16
2023-05-21T22:50:58.893Z,101434.44
2023-05-21T22:53:26.004Z,101431.28
2023-05-21T22:55:53.321Z,101437.91
2023-05-21T22:58:20.130Z,101435.53
2023-05-21T23:00:47.431Z,101426.50
2023-05-21T23:03:14.577Z,101426.38
2023-05-21T23:05:41.626Z,101421.25
2023-05-21T23:08:08.477Z,101427.53
2023-05-21T23:10:36.015Z,101428.19
2023-05-21T23:13:03.030Z,101430.38
2023-05-21T23:15:29.783Z,101430.78
2023-05-21T23:17:57.492Z,101423.09
2023-05-21T23:20:28.013Z,101426.25
2023-05-21T23:22:54.827Z,101430.25
2023-05-21T23:25:21.664Z,101415.16
2023-05-21T23:27:48.464Z,101422.72
2023-05-21T23:30:15.381Z,101417.25
2023-05-21T23:32:42.452Z,101423.88
2023-05-21T23:35:10.082Z,101419.81
2023-05-21T23:37:36.935Z,101415.72
2023-05-21T23:40:03.984Z,101412.50
2023-05-21T23:42:30.916Z,101417.47
2023-05-21T23:44:57.710Z,101404.00
2023-05-21T23:47:24.496Z,101411.56
2023-05-21T23:49:52.534Z,101410.84
2023-05-21T23:52:19.338Z,101408.31
2023-05-21T23:54:46.364Z,101409.31
2023-05-21T23:57:13.598Z,101419.00
2023-05-21T23:59:40.744Z,101412.66
